createdAt,value
2022-09-28T00:01:13.588Z,75.16
2022-09-28T00:03:40.658Z,74.86
2022-09-28T00:06:11.247Z,75.25
2022-09-28T00:08:38.838Z,75.01
2022-09-28T00:11:08.760Z,75.35
2022-09-28T00:13:35.757Z,75.38
2022-09-28T00:16:12.443Z,74.94
2022-09-28T00:18:39.888Z,75.78
2022-09-28T00:21:13.309Z,75.51
2022-09-28T00:23:59.596Z,75.91
2022-09-28T00:26:33.230Z,76.03
2022-09-28T00:29:02.454Z,75.90
2022-09-28T00:31:32.898Z,76.15
2022-09-28T00:34:02.285Z,76.50
2022-09-28T00:36:32.795Z,76.77
2022-09-28T00:39:05.870Z,77.20
2022-09-28T00:41:34.191Z,77.07
2022-09-28T00:44:25.872Z,76.94
2022-09-28T00:47:03.679Z,77.35
2022-09-28T00:49:41.204Z,77.11
2022-09-28T00:52:14.294Z,78.17
2022-09-28T00:54:45.877Z,77.23
2022-09-28T00:57:13.828Z,77.70
2022-09-28T00:59:41.680Z,77.68
2022-09-28T01:02:10.575Z,77.28
2022-09-28T01:04:38.953Z,77.67
2022-09-28T01:07:08.878Z,78.34
2022-09-28T01:09:39.919Z,77.47
2022-09-28T01:12:08.261Z,78.09
2022-09-28T01:14:35.274Z,78.04
2022-09-28T01:17:25.568Z,78.56
2022-09-28T01:20:26.751Z,78.48
2022-09-28T01:23:13.092Z,78.34
2022-09-28T01:26:27.913Z,78.25
2022-09-28T01:29:10.725Z,78.90
2022-09-28T01:31:45.334Z,78.82
2022-09-28T01:34:24.132Z,77.81
2022-09-28T01:36:56.828Z,78.15
2022-09-28T01:39:34.965Z,78.53
2022-09-28T01:42:11.932Z,77.55
2022-09-28T01:44:44.400Z,78.31
2022-09-28T01:47:15.684Z,78.59
2022-09-28T01:50:03.048Z,78.50
2022-09-28T01:52:45.542Z,78.41
2022-09-28T01:55:19.830Z,78.48
2022-09-28T01:57:58.020Z,78.89
2022-09-28T02:00:26.230Z,78.60
2022-09-28T02:03:08.968Z,78.71
2022-09-28T02:05:49.092Z,78.16
2022-09-28T02:08:28.429Z,77.65
2022-09-28T02:11:05.743Z,78.73
2022-09-28T02:14:03.058Z,78.21
2022-09-28T02:16:48.507Z,78.53
2022-09-28T02:19:21.275Z,77.79
2022-09-28T02:21:54.739Z,77.97
2022-09-28T02:25:10.648Z,78.43
2022-09-28T02:27:43.610Z,78.82
2022-09-28T02:30:11.978Z,78.46
2022-09-28T02:32:44.932Z,78.48
2022-09-28T02:35:15.902Z,78.86
2022-09-28T02:37:43.284Z,78.43
2022-09-28T02:40:20.574Z,78.33
2022-09-28T02:43:16.634Z,78.39
2022-09-28T02:46:13.046Z,78.88
2022-09-28T02:49:22.079Z,79.42
2022-09-28T02:52:18.320Z,78.86
2022-09-28T02:55:18.613Z,78.57
2022-09-28T02:58:06.805Z,78.54
2022-09-28T03:00:54.673Z,79.05
2022-09-28T03:03:53.744Z,80.00
2022-09-28T03:06:32.097Z,79.23
2022-09-28T03:09:25.824Z,78.75
2022-09-28T03:12:01.470Z,78.20
2022-09-28T03:14:29.112Z,79.39
2022-09-28T03:16:57.543Z,79.95
2022-09-28T03:19:30.357Z,78.25
2022-09-28T03:21:57.259Z,79.63
2022-09-28T03:24:24.203Z,79.92
2022-09-28T03:26:51.708Z,80.26
2022-09-28T03:29:20.413Z,80.57
2022-09-28T03:31:52.369Z,79.60
2022-09-28T03:34:19.305Z,80.00
2022-09-28T03:36:46.400Z,80.24
2022-09-28T03:39:13.710Z,78.89
2022-09-28T03:41:41.133Z,80.29
2022-09-28T03:44:08.292Z,80.95
2022-09-28T03:46:35.375Z,80.71
2022-09-28T03:49:06.624Z,80.61
2022-09-28T03:51:33.660Z,81.03
2022-09-28T03:54:00.788Z,81.66
2022-09-28T03:56:27.966Z,82.34
2022-09-28T03:58:55.223Z,82.47
2022-09-28T04:01:22.229Z,82.50
2022-09-28T04:03:56.073Z,82.35
2022-09-28T04:06:25.236Z,82.36
2022-09-28T04:08:52.801Z,82.05
2022-09-28T04:11:20.233Z,81.60
2022-09-28T04:13:50.860Z,82.12
2022-09-28T04:16:18.968Z,82.25
2022-09-28T04:18:58.869Z,82.62
2022-09-28T04:21:46.778Z,82.32
2022-09-28T04:24:14.902Z,81.16
2022-09-28T04:26:42.059Z,81.66
2022-09-28T04:29:17.783Z,81.43
2022-09-28T04:31:53.435Z,82.42
2022-09-28T04:34:36.506Z,82.01
2022-09-28T04:37:05.220Z,81.82
2022-09-28T04:39:32.296Z,82.34
2022-09-28T04:41:59.896Z,81.81
2022-09-28T04:44:27.729Z,83.98
2022-09-28T04:47:06.347Z,82.51
2022-09-28T04:49:35.381Z,82.63
2022-09-28T04:52:09.579Z,82.86
2022-09-28T04:54:38.032Z,82.64
2022-09-28T04:57:06.825Z,82.36
2022-09-28T04:59:33.968Z,82.84
2022-09-28T05:02:01.013Z,83.12
2022-09-28T05:04:51.049Z,82.90
2022-09-28T05:07:36.331Z,82.77
2022-09-28T05:10:05.942Z,83.42
2022-09-28T05:12:33.691Z,83.50
2022-09-28T05:15:00.834Z,83.01
2022-09-28T05:17:27.987Z,82.88
2022-09-28T05:20:09.890Z,82.27
2022-09-28T05:22:36.780Z,81.15
2022-09-28T05:25:05.940Z,82.16
2022-09-28T05:27:44.258Z,82.53
2022-09-28T05:30:26.505Z,82.37
2022-09-28T05:33:11.883Z,82.35
2022-09-28T05:35:44.734Z,82.37
2022-09-28T05:38:11.987Z,81.68
2022-09-28T05:40:38.987Z,82.57
2022-09-28T05:43:06.111Z,83.48
2022-09-28T05:45:33.716Z,82.27
2022-09-28T05:48:00.931Z,82.56
2022-09-28T05:50:27.979Z,82.06
2022-09-28T05:53:06.624Z,82.23
2022-09-28T05:55:34.789Z,81.89
2022-09-28T05:58:05.972Z,83.63
2022-09-28T06:00:35.809Z,83.33
2022-09-28T06:03:09.270Z,83.34
2022-09-28T06:05:39.385Z,81.58
2022-09-28T06:08:10.352Z,83.00
2022-09-28T06:10:39.017Z,82.93
2022-09-28T06:13:07.350Z,83.04
2022-09-28T06:15:36.932Z,82.60
2022-09-28T06:18:09.356Z,82.57
2022-09-28T06:20:44.308Z,83.81
2022-09-28T06:23:15.861Z,83.65
2022-09-28T06:25:43.383Z,83.10
2022-09-28T06:28:13.602Z,83.89
2022-09-28T06:30:42.542Z,82.99
2022-09-28T06:33:14.491Z,83.79
2022-09-28T06:35:42.437Z,82.89
2022-09-28T06:38:11.221Z,84.00
2022-09-28T06:40:38.840Z,84.40
2022-09-28T06:43:15.216Z,82.67
2022-09-28T06:46:02.405Z,84.07
2022-09-28T06:48:59.198Z,84.28
2022-09-28T06:51:48.981Z,84.21
2022-09-28T06:54:25.757Z,84.32
2022-09-28T06:57:13.234Z,84.13
2022-09-28T06:59:40.565Z,84.38
2022-09-28T07:02:16.063Z,82.97
2022-09-28T07:05:27.154Z,81.87
2022-09-28T07:07:59.753Z,82.01
2022-09-28T07:10:48.599Z,82.61
2022-09-28T07:16:13.366Z,79.84
2022-09-28T07:18:42.175Z,79.37
2022-09-28T07:21:14.935Z,80.31
2022-09-28T07:23:53.908Z,78.42
2022-09-28T07:26:24.842Z,77.25
2022-09-28T07:29:15.454Z,79.57
2022-09-28T07:32:01.803Z,79.27
2022-09-28T07:34:50.198Z,78.63
2022-09-28T07:37:39.095Z,80.57
2022-09-28T07:40:27.140Z,79.09
2022-09-28T07:42:54.697Z,78.14
2022-09-28T07:45:24.468Z,77.77
2022-09-28T07:47:58.433Z,77.92
2022-09-28T07:50:36.796Z,78.95
2022-09-28T07:53:16.322Z,78.93
2022-09-28T07:56:21.296Z,78.71
2022-09-28T07:59:11.502Z,78.18
2022-09-28T08:01:39.402Z,77.18
2022-09-28T08:04:08.493Z,77.21
2022-09-28T08:06:40.469Z,76.91
2022-09-28T08:09:08.759Z,78.18
2022-09-28T08:11:56.124Z,78.48
2022-09-28T08:14:37.805Z,78.58
2022-09-28T08:17:28.171Z,79.18
2022-09-28T08:20:17.234Z,79.99
2022-09-28T08:22:44.220Z,80.34
2022-09-28T08:25:11.699Z,79.77
2022-09-28T08:27:38.810Z,78.73
2022-09-28T08:30:07.065Z,78.09
2022-09-28T08:32:49.702Z,78.94
2022-09-28T08:35:40.913Z,78.30
2022-09-28T08:38:20.605Z,78.10
2022-09-28T08:41:44.581Z,78.18
2022-09-28T08:44:50.634Z,78.42
2022-09-28T08:48:08.536Z,76.33
2022-09-28T08:51:11.092Z,78.08
2022-09-28T08:54:04.855Z,80.48
2022-09-28T08:56:52.214Z,80.06
2022-09-28T08:59:25.118Z,81.28
2022-09-28T09:02:03.682Z,80.23
2022-09-28T09:04:33.838Z,80.51
2022-09-28T09:07:48.637Z,80.35
2022-09-28T09:10:53.400Z,80.25
2022-09-28T09:13:58.493Z,80.99
2022-09-28T09:16:34.452Z,81.47
2022-09-28T09:19:35.535Z,81.62
2022-09-28T09:22:26.024Z,79.30
2022-09-28T09:25:47.475Z,80.47
2022-09-28T09:28:43.887Z,79.57
2022-09-28T09:31:51.258Z,81.11
2022-09-28T09:34:51.741Z,80.64
2022-09-28T09:38:27.942Z,82.00
2022-09-28T09:41:27.046Z,80.62
2022-09-28T09:44:52.954Z,80.67
2022-09-28T09:47:51.105Z,82.82
2022-09-28T09:50:57.857Z,82.85
2022-09-28T09:53:40.763Z,83.08
2022-09-28T09:56:40.330Z,84.05
2022-09-28T09:59:20.158Z,82.92
2022-09-28T10:02:28.192Z,83.40
2022-09-28T10:05:24.047Z,82.95
2022-09-28T10:08:01.864Z,84.01
2022-09-28T10:10:36.087Z,82.74
2022-09-28T10:13:12.275Z,84.42
2022-09-28T10:15:42.258Z,85.01
2022-09-28T10:18:21.141Z,83.43
2022-09-28T10:21:07.090Z,85.23
2022-09-28T10:24:02.701Z,84.95
2022-09-28T10:26:44.231Z,83.30
2022-09-28T10:29:19.865Z,85.50
2022-09-28T10:31:52.991Z,84.97
2022-09-28T10:34:30.145Z,84.56
2022-09-28T10:37:06.740Z,83.69
2022-09-28T10:39:55.591Z,84.10
2022-09-28T10:42:32.417Z,84.65
2022-09-28T10:45:23.848Z,84.53
2022-09-28T10:47:51.422Z,84.89
2022-09-28T10:50:26.398Z,86.20
2022-09-28T10:53:21.132Z,86.14
2022-09-28T10:56:26.837Z,84.79
2022-09-28T10:59:01.063Z,84.96
2022-09-28T11:01:43.690Z,83.78
2022-09-28T11:04:24.383Z,84.04
2022-09-28T11:06:51.924Z,83.93
2022-09-28T11:09:42.811Z,84.46
2022-09-28T11:12:18.399Z,83.96
2022-09-28T11:14:47.334Z,84.30
2022-09-28T11:17:31.053Z,84.48
2022-09-28T11:20:27.845Z,84.62
2022-09-28T11:23:08.203Z,84.47
2022-09-28T11:25:39.543Z,84.16
2022-09-28T11:28:15.625Z,83.94
2022-09-28T11:30:52.598Z,82.52
2022-09-28T11:33:42.262Z,83.05
2022-09-28T11:36:58.361Z,82.64
2022-09-28T11:40:23.027Z,82.96
2022-09-28T11:43:16.718Z,81.63
2022-09-28T11:46:06.366Z,82.18
2022-09-28T11:48:51.114Z,81.15
2022-09-28T11:51:29.227Z,80.70
2022-09-28T11:54:14.445Z,80.23
2022-09-28T11:56:48.544Z,80.50
2022-09-28T11:59:36.788Z,79.75
2022-09-28T12:02:20.751Z,78.77
2022-09-28T12:05:23.981Z,78.62
2022-09-28T12:08:12.578Z,80.09
2022-09-28T12:11:15.665Z,78.14
2022-09-28T12:14:05.111Z,80.39
2022-09-28T12:19:42.565Z,78.80
2022-09-28T12:22:22.076Z,78.26
2022-09-28T12:24:54.736Z,80.77
2022-09-28T12:27:40.443Z,79.72
2022-09-28T12:30:22.244Z,80.70
2022-09-28T12:33:01.715Z,80.51
2022-09-28T12:36:19.210Z,79.45
2022-09-28T12:39:40.999Z,81.88
2022-09-28T12:42:47.557Z,82.75
2022-09-28T12:46:17.504Z,83.16
2022-09-28T12:52:58.063Z,83.00
2022-09-28T12:55:42.353Z,81.19
2022-09-28T12:58:33.840Z,81.18
2022-09-28T13:01:08.689Z,80.64
2022-09-28T13:04:13.829Z,81.75
2022-09-28T13:07:05.280Z,82.91
2022-09-28T13:10:26.501Z,80.43
2022-09-28T13:13:17.620Z,80.11
2022-09-28T13:16:17.500Z,79.07
2022-09-28T13:19:22.615Z,79.85
2022-09-28T13:22:07.472Z,79.73
2022-09-28T13:24:41.722Z,79.63
2022-09-28T13:27:21.760Z,79.51
2022-09-28T13:29:51.215Z,77.78
2022-09-28T13:32:19.452Z,79.68
2022-09-28T13:34:50.643Z,80.43
2022-09-28T13:37:21.854Z,78.12
2022-09-28T13:39:52.751Z,77.91
2022-09-28T13:42:42.206Z,79.16
2022-09-28T13:45:37.821Z,79.21
2022-09-28T13:48:20.509Z,77.04
2022-09-28T13:51:14.191Z,76.61
2022-09-28T13:54:00.591Z,78.34
2022-09-28T13:57:05.619Z,75.87
2022-09-28T13:59:40.847Z,77.18
2022-09-28T14:02:36.728Z,78.91
2022-09-28T14:05:23.558Z,78.21
2022-09-28T14:08:09.256Z,77.73
2022-09-28T14:10:52.813Z,77.13
2022-09-28T14:13:41.679Z,76.88
2022-09-28T14:16:32.940Z,78.69
2022-09-28T14:19:12.441Z,77.74
2022-09-28T14:22:12.691Z,77.18
2022-09-28T14:24:55.477Z,78.65
2022-09-28T14:27:37.763Z,80.07
2022-09-28T14:30:27.887Z,78.94
2022-09-28T14:32:58.689Z,78.77
2022-09-28T14:35:41.448Z,77.00
2022-09-28T14:38:49.483Z,76.65
2022-09-28T14:41:17.669Z,76.25
2022-09-28T14:43:44.501Z,75.87
2022-09-28T14:46:11.593Z,77.67
2022-09-28T14:49:03.833Z,77.05
2022-09-28T14:51:30.599Z,76.46
2022-09-28T14:54:10.509Z,76.48
2022-09-28T14:56:43.647Z,77.60
2022-09-28T14:59:20.789Z,76.62
2022-09-28T15:02:08.229Z,76.25
2022-09-28T15:04:56.331Z,76.45
2022-09-28T15:07:41.978Z,76.26
2022-09-28T15:10:33.802Z,76.25
2022-09-28T15:13:05.307Z,75.94
2022-09-28T15:15:40.070Z,75.53
2022-09-28T15:18:46.177Z,75.81
2022-09-28T15:21:14.250Z,76.28
2022-09-28T15:23:44.102Z,77.26
2022-09-28T15:26:32.080Z,77.20
2022-09-28T15:29:03.248Z,76.22
2022-09-28T15:31:35.974Z,75.68
2022-09-28T15:34:28.755Z,76.63
2022-09-28T15:36:56.519Z,76.21
2022-09-28T15:39:32.224Z,74.47
2022-09-28T15:42:00.395Z,74.39
2022-09-28T15:44:37.135Z,74.64
2022-09-28T15:47:24.783Z,74.81
2022-09-28T15:50:22.824Z,73.52
2022-09-28T15:53:06.124Z,73.47
2022-09-28T15:55:39.268Z,72.36
2022-09-28T15:58:22.637Z,73.57
2022-09-28T16:01:12.179Z,75.09
2022-09-28T16:03:39.527Z,74.23
2022-09-28T16:06:10.315Z,73.38
2022-09-28T16:08:40.220Z,73.29
2022-09-28T16:11:19.857Z,72.61
2022-09-28T16:14:06.426Z,73.92
2022-09-28T16:16:49.613Z,75.50
2022-09-28T16:19:29.828Z,75.97
2022-09-28T16:22:03.232Z,76.86
2022-09-28T16:24:37.349Z,76.25
2022-09-28T16:27:40.232Z,76.87
2022-09-28T16:30:16.284Z,76.28
2022-09-28T16:32:53.506Z,76.50
2022-09-28T16:35:26.205Z,76.63
2022-09-28T16:38:12.454Z,76.26
2022-09-28T16:40:42.915Z,77.22
2022-09-28T16:43:36.685Z,76.48
2022-09-28T16:46:06.768Z,76.71
2022-09-28T16:48:39.456Z,76.68
2022-09-28T16:51:06.555Z,77.24
2022-09-28T16:53:51.892Z,76.68
2022-09-28T16:56:18.896Z,76.44
2022-09-28T16:58:48.083Z,77.04
2022-09-28T17:01:15.360Z,77.20
2022-09-28T17:03:46.836Z,76.79
2022-09-28T17:06:14.827Z,76.63
2022-09-28T17:08:43.152Z,76.92
2022-09-28T17:11:19.293Z,78.18
2022-09-28T17:13:50.722Z,76.95
2022-09-28T17:16:36.750Z,78.00
2022-09-28T17:19:26.981Z,77.12
2022-09-28T17:21:54.005Z,77.88
2022-09-28T17:24:21.326Z,77.94
2022-09-28T17:26:51.782Z,78.32
2022-09-28T17:29:19.158Z,77.57
2022-09-28T17:31:47.511Z,77.53
2022-09-28T17:34:16.753Z,77.33
2022-09-28T17:36:44.673Z,77.05
2022-09-28T17:39:18.815Z,78.31
2022-09-28T17:41:46.121Z,77.76
2022-09-28T17:44:16.769Z,77.54
2022-09-28T17:46:48.552Z,77.55
2022-09-28T17:49:17.001Z,77.22
2022-09-28T17:51:44.009Z,78.62
2022-09-28T17:54:12.916Z,77.33
2022-09-28T17:56:39.936Z,77.40
2022-09-28T17:59:12.659Z,78.21
2022-09-28T18:01:40.678Z,78.02
2022-09-28T18:04:23.089Z,77.48
2022-09-28T18:06:59.056Z,76.84
2022-09-28T18:09:26.252Z,76.62
2022-09-28T18:12:03.885Z,77.20
2022-09-28T18:14:31.190Z,77.93
2022-09-28T18:16:58.265Z,76.81
2022-09-28T18:19:28.560Z,76.04
2022-09-28T18:21:58.981Z,77.46
2022-09-28T18:24:25.983Z,77.88
2022-09-28T18:26:53.035Z,77.55
2022-09-28T18:29:19.953Z,78.19
2022-09-28T18:31:48.694Z,77.61
2022-09-28T18:34:15.700Z,77.32
2022-09-28T18:36:42.613Z,78.45
2022-09-28T18:39:09.806Z,77.68
2022-09-28T18:41:36.813Z,77.97
2022-09-28T18:44:03.858Z,77.82
2022-09-28T18:46:36.742Z,76.79
2022-09-28T18:49:07.012Z,77.74
2022-09-28T18:51:33.938Z,77.69
2022-09-28T18:54:06.663Z,77.34
2022-09-28T18:56:37.261Z,77.27
2022-09-28T18:59:20.977Z,78.09
2022-09-28T19:01:48.045Z,76.87
2022-09-28T19:04:15.411Z,76.96
2022-09-28T19:06:44.635Z,77.67
2022-09-28T19:09:12.344Z,76.59
2022-09-28T19:11:39.357Z,78.13
2022-09-28T19:14:06.266Z,78.33
2022-09-28T19:16:34.871Z,78.33
2022-09-28T19:19:03.103Z,77.78
2022-09-28T19:21:30.825Z,77.42
2022-09-28T19:24:01.834Z,77.03
2022-09-28T19:26:30.859Z,77.26
2022-09-28T19:28:58.839Z,77.82
2022-09-28T19:31:26.897Z,77.43
2022-09-28T19:33:54.256Z,78.14
2022-09-28T19:36:24.379Z,78.07
2022-09-28T19:38:53.078Z,77.07
2022-09-28T19:41:44.824Z,76.90
2022-09-28T19:44:28.110Z,78.05
2022-09-28T19:47:08.674Z,77.85
2022-09-28T19:49:38.519Z,80.01
2022-09-28T19:52:14.329Z,80.03
2022-09-28T19:54:54.441Z,80.39
2022-09-28T19:57:24.730Z,77.70
2022-09-28T19:59:54.969Z,78.08
2022-09-28T20:02:23.991Z,79.13
2022-09-28T20:04:51.195Z,78.36
2022-09-28T20:07:18.300Z,76.84
2022-09-28T20:09:45.322Z,77.82
2022-09-28T20:12:12.530Z,78.16
2022-09-28T20:14:40.413Z,77.61
2022-09-28T20:17:08.114Z,77.21
2022-09-28T20:19:36.040Z,77.58
2022-09-28T20:22:03.435Z,77.85
2022-09-28T20:24:31.514Z,77.48
2022-09-28T20:26:59.172Z,78.50
2022-09-28T20:29:26.639Z,78.12
2022-09-28T20:31:53.608Z,77.80
2022-09-28T20:34:20.787Z,77.55
2022-09-28T20:36:48.280Z,78.26
2022-09-28T20:39:15.412Z,78.14
2022-09-28T20:41:42.458Z,78.86
2022-09-28T20:44:10.036Z,79.04
2022-09-28T20:46:38.163Z,78.54
2022-09-28T20:49:07.055Z,78.49
2022-09-28T20:51:33.972Z,77.36
2022-09-28T20:54:01.109Z,77.06
2022-09-28T20:56:38.119Z,76.33
2022-09-28T20:59:11.611Z,76.87
2022-09-28T21:01:39.091Z,77.42
2022-09-28T21:04:08.360Z,77.17
2022-09-28T21:06:39.029Z,77.79
2022-09-28T21:09:08.753Z,76.69
2022-09-28T21:11:36.133Z,77.42
2022-09-28T21:14:06.725Z,77.32
2022-09-28T21:16:35.194Z,76.82
2022-09-28T21:19:02.789Z,76.38
2022-09-28T21:21:29.938Z,76.41
2022-09-28T21:23:58.431Z,76.56
2022-09-28T21:26:28.466Z,76.22
2022-09-28T21:29:05.341Z,75.57
2022-09-28T21:31:45.689Z,75.78
2022-09-28T21:34:19.302Z,76.07
2022-09-28T21:36:53.282Z,75.92
2022-09-28T21:39:20.751Z,75.97
2022-09-28T21:41:48.056Z,76.10
2022-09-28T21:44:15.226Z,75.92
2022-09-28T21:46:42.692Z,76.33
2022-09-28T21:49:12.646Z,77.04
2022-09-28T21:51:39.698Z,76.52
2022-09-28T21:54:06.860Z,76.29
2022-09-28T21:56:34.072Z,76.18
2022-09-28T21:59:01.502Z,76.53
2022-09-28T22:01:29.011Z,76.49
2022-09-28T22:03:57.527Z,76.74
2022-09-28T22:06:29.655Z,76.86
2022-09-28T22:08:57.447Z,75.98
2022-09-28T22:11:28.430Z,77.20
2022-09-28T22:13:59.359Z,76.78
2022-09-28T22:16:31.226Z,75.88
2022-09-28T22:18:59.261Z,75.87
2022-09-28T22:21:34.896Z,77.32
2022-09-28T22:24:07.035Z,77.11
2022-09-28T22:26:36.347Z,77.11
2022-09-28T22:29:07.595Z,78.00
2022-09-28T22:31:38.852Z,79.45
2022-09-28T22:34:08.961Z,77.47
2022-09-28T22:36:36.061Z,77.11
2022-09-28T22:39:04.329Z,77.40
2022-09-28T22:41:32.152Z,77.74
2022-09-28T22:43:59.642Z,77.23
2022-09-28T22:46:29.465Z,76.86
2022-09-28T22:48:58.868Z,77.55
2022-09-28T22:51:30.115Z,79.33
2022-09-28T22:53:57.981Z,79.81
2022-09-28T22:56:25.608Z,79.04
2022-09-28T22:58:52.657Z,78.48
2022-09-28T23:01:29.696Z,77.79
2022-09-28T23:03:58.531Z,79.01
2022-09-28T23:06:28.273Z,79.31
2022-09-28T23:08:55.585Z,78.94
2022-09-28T23:11:22.709Z,78.82
2022-09-28T23:13:55.806Z,78.73
2022-09-28T23:16:26.687Z,79.08
2022-09-28T23:18:55.275Z,78.63
2022-09-28T23:21:26.314Z,78.44
2022-09-28T23:24:01.533Z,79.12
2022-09-28T23:26:32.636Z,79.37
2022-09-28T23:29:00.124Z,79.54
2022-09-28T23:31:31.434Z,78.69
2022-09-28T23:34:05.777Z,79.02
2022-09-28T23:36:33.828Z,79.30
2022-09-28T23:39:00.805Z,78.56
2022-09-28T23:41:28.256Z,78.47
2022-09-28T23:44:02.257Z,78.86
2022-09-28T23:46:29.278Z,80.28
2022-09-28T23:48:56.634Z,82.04
2022-09-28T23:51:23.632Z,80.58
2022-09-28T23:53:50.658Z,80.67
2022-09-28T23:56:17.694Z,80.41
2022-09-28T23:58:45.027Z,79.04
